createdAt,value
2024-02-13T00:02:39.876Z,3.40
2024-02-13T00:05:44.489Z,3.15
2024-02-13T00:08:48.711Z,3.17
2024-02-13T00:11:52.403Z,2.90
2024-02-13T00:14:56.314Z,3.03
2024-02-13T00:18:01.195Z,3.15
2024-02-13T00:21:04.024Z,3.20
2024-02-13T00:24:07.084Z,3.45
2024-02-13T00:27:09.681Z,3.67
2024-02-13T00:30:13.349Z,3.35
2024-02-13T00:33:18.660Z,3.20
2024-02-13T00:36:22.961Z,3.12
2024-02-13T00:39:25.615Z,3.28
2024-02-13T00:42:28.357Z,3.35
2024-02-13T00:45:30.871Z,3.65
2024-02-13T00:48:34.596Z,3.58
2024-02-13T00:51:37.431Z,3.50
2024-02-13T00:54:40.313Z,3.42
2024-02-13T00:57:42.898Z,3.78
2024-02-13T01:00:46.313Z,3.85
2024-02-13T01:03:49.367Z,3.92
2024-02-13T01:06:52.405Z,3.47
2024-02-13T01:09:54.919Z,3.60
2024-02-13T01:12:59.898Z,3.60
2024-02-13T01:16:05.161Z,3.75
2024-02-13T01:19:08.458Z,3.60
2024-02-13T01:22:12.897Z,3.70
2024-02-13T01:25:15.892Z,3.75
2024-02-13T01:28:20.756Z,3.85
2024-02-13T01:31:23.672Z,3.53
2024-02-13T01:34:27.788Z,3.67
2024-02-13T01:37:30.864Z,3.70
2024-02-13T01:40:33.562Z,3.72
2024-02-13T01:43:36.313Z,3.80
2024-02-13T01:46:40.781Z,3.83
2024-02-13T01:49:43.744Z,3.70
2024-02-13T01:52:47.182Z,3.97
2024-02-13T01:55:51.450Z,3.87
2024-02-13T01:58:54.344Z,3.80
2024-02-13T02:01:57.070Z,4.10
2024-02-13T02:05:01.240Z,4.10
2024-02-13T02:08:03.995Z,4.10
2024-02-13T02:11:06.917Z,4.05
2024-02-13T02:14:10.220Z,4.10
2024-02-13T02:17:13.251Z,3.90
2024-02-13T02:20:15.773Z,3.92
2024-02-13T02:23:20.360Z,4.12
2024-02-13T02:26:23.243Z,4.20
2024-02-13T02:29:26.570Z,4.47
2024-02-13T02:32:29.395Z,3.70
2024-02-13T02:35:32.417Z,4.32
2024-02-13T02:38:39.462Z,4.80
2024-02-13T02:41:42.372Z,4.50
2024-02-13T02:44:45.005Z,4.37
2024-02-13T02:47:48.264Z,4.40
2024-02-13T02:50:50.992Z,4.60
2024-02-13T02:53:54.147Z,4.65
2024-02-13T02:56:56.678Z,4.22
2024-02-13T02:59:59.812Z,4.30
2024-02-13T03:03:03.608Z,4.57
2024-02-13T03:06:07.072Z,4.35
2024-02-13T03:09:10.332Z,4.37
2024-02-13T03:12:13.145Z,4.15
2024-02-13T03:15:15.769Z,4.35
2024-02-13T03:18:19.359Z,4.50
2024-02-13T03:21:23.154Z,4.25
2024-02-13T03:24:25.947Z,4.45
2024-02-13T03:27:28.391Z,4.18
2024-02-13T03:30:31.368Z,4.62
2024-02-13T03:33:34.156Z,4.45
2024-02-13T03:36:38.147Z,4.40
2024-02-13T03:39:44.054Z,4.30
2024-02-13T03:42:46.859Z,4.90
2024-02-13T03:45:50.012Z,4.70
2024-02-13T03:48:52.886Z,4.28
2024-02-13T03:51:55.425Z,4.43
2024-02-13T03:54:58.659Z,4.60
2024-02-13T03:58:01.750Z,4.95
2024-02-13T04:01:04.656Z,4.60
2024-02-13T04:04:07.580Z,4.57
2024-02-13T04:07:10.082Z,4.55
2024-02-13T04:10:13.297Z,4.70
2024-02-13T04:13:16.173Z,4.80
2024-02-13T04:16:19.512Z,4.43
2024-02-13T04:19:22.277Z,4.28
2024-02-13T04:22:25.650Z,4.43
2024-02-13T04:25:28.155Z,4.35
2024-02-13T04:28:31.047Z,4.70
2024-02-13T04:31:33.908Z,4.93
2024-02-13T04:34:36.889Z,4.87
2024-02-13T04:37:39.564Z,4.80
2024-02-13T04:40:42.435Z,4.82
2024-02-13T04:43:45.106Z,5.37
2024-02-13T04:46:48.029Z,5.22
2024-02-13T04:49:50.649Z,5.43
2024-02-13T04:52:53.506Z,4.97
2024-02-13T04:55:56.487Z,5.40
2024-02-13T04:58:59.277Z,5.32
2024-02-13T05:02:05.526Z,5.35
2024-02-13T05:05:27.465Z,5.80
2024-02-13T05:08:31.382Z,5.45
2024-02-13T05:11:34.252Z,5.72
2024-02-13T05:14:37.106Z,5.50
2024-02-13T05:17:40.097Z,6.12
2024-02-13T05:20:42.813Z,10.50
2024-02-13T05:23:48.571Z,6.28
2024-02-13T05:26:51.508Z,6.53
2024-02-13T05:29:54.490Z,6.20
2024-02-13T05:32:58.101Z,6.80
2024-02-13T05:36:03.162Z,6.57
2024-02-13T05:39:05.840Z,6.60
2024-02-13T05:42:10.139Z,7.18
2024-02-13T05:45:12.881Z,6.35
2024-02-13T05:48:16.067Z,6.90
2024-02-13T05:51:19.975Z,7.28
2024-02-13T05:54:23.328Z,6.97
2024-02-13T05:57:26.470Z,7.05
2024-02-13T06:00:29.416Z,6.78
2024-02-13T06:03:34.188Z,7.40
2024-02-13T06:06:38.584Z,7.32
2024-02-13T06:09:41.990Z,7.35
2024-02-13T06:12:45.221Z,6.90
2024-02-13T06:15:48.320Z,6.93
2024-02-13T06:18:50.996Z,6.60
2024-02-13T06:21:54.004Z,6.40
2024-02-13T06:24:56.583Z,6.40
2024-02-13T06:27:59.536Z,6.50
2024-02-13T06:31:04.519Z,6.47
2024-02-13T06:34:07.617Z,6.00
2024-02-13T06:37:11.949Z,6.18
2024-02-13T06:40:16.383Z,6.57
2024-02-13T06:43:20.536Z,6.50
2024-02-13T06:46:23.383Z,6.30
2024-02-13T06:52:30.969Z,6.87
2024-02-13T06:55:33.791Z,6.80
2024-02-13T06:58:39.324Z,6.45
2024-02-13T07:01:42.074Z,6.55
2024-02-13T07:04:45.027Z,6.30
2024-02-13T07:07:49.236Z,6.80
2024-02-13T07:10:53.677Z,6.93
2024-02-13T07:13:56.702Z,6.18
2024-02-13T07:16:59.582Z,7.03
2024-02-13T07:20:02.878Z,6.68
2024-02-13T07:23:05.791Z,6.85
2024-02-13T07:26:12.714Z,7.12
2024-02-13T07:29:17.336Z,7.53
2024-02-13T07:32:21.512Z,6.82
2024-02-13T07:35:24.441Z,6.72
2024-02-13T07:38:27.712Z,7.60
2024-02-13T07:41:30.699Z,6.87
2024-02-13T07:44:35.684Z,7.12
2024-02-13T07:47:40.611Z,7.57
2024-02-13T07:50:43.633Z,7.57
2024-02-13T07:53:46.516Z,7.35
2024-02-13T07:56:49.712Z,7.60
2024-02-13T07:59:56.741Z,7.00
2024-02-13T08:03:00.898Z,7.10
2024-02-13T08:06:04.016Z,6.90
2024-02-13T08:09:06.982Z,7.40
2024-02-13T08:12:10.431Z,7.00
2024-02-13T08:15:12.976Z,6.82
2024-02-13T08:18:19.196Z,6.72
2024-02-13T08:21:23.746Z,6.53
2024-02-13T08:24:26.671Z,6.32
2024-02-13T08:27:30.734Z,5.50
2024-02-13T08:30:33.688Z,5.80
2024-02-13T08:33:36.413Z,5.57
2024-02-13T08:36:40.653Z,5.25
2024-02-13T08:39:43.378Z,5.10
2024-02-13T08:42:46.810Z,5.20
2024-02-13T08:45:49.387Z,5.90
2024-02-13T08:48:52.665Z,5.40
2024-02-13T08:51:56.410Z,5.62
2024-02-13T08:54:59.388Z,5.80
2024-02-13T08:58:02.045Z,5.37
2024-02-13T09:01:06.130Z,5.55
2024-02-13T09:04:08.897Z,5.32
2024-02-13T09:07:11.862Z,5.95
2024-02-13T09:10:14.499Z,6.10
2024-02-13T09:13:17.524Z,5.95
2024-02-13T09:16:20.775Z,5.93
2024-02-13T09:19:23.749Z,6.47
2024-02-13T09:22:26.337Z,5.75
2024-02-13T09:25:29.317Z,5.12
2024-02-13T09:28:32.558Z,5.22
2024-02-13T09:31:35.605Z,5.30
2024-02-13T09:34:41.419Z,5.53
2024-02-13T09:37:45.017Z,6.57
2024-02-13T09:40:49.401Z,6.40
2024-02-13T09:43:52.793Z,5.55
2024-02-13T09:46:55.612Z,6.68
2024-02-13T09:50:00.755Z,6.43
2024-02-13T09:53:09.841Z,6.43
2024-02-13T09:56:15.367Z,6.40
2024-02-13T09:59:22.968Z,6.47
2024-02-13T10:02:29.231Z,6.50
2024-02-13T10:05:32.321Z,5.95
2024-02-13T10:08:39.110Z,5.75
2024-02-13T10:11:44.009Z,5.65
2024-02-13T10:14:57.635Z,5.62
2024-02-13T10:18:01.064Z,6.03
2024-02-13T10:21:06.073Z,4.65
2024-02-13T10:24:14.368Z,4.75
2024-02-13T10:27:19.209Z,5.18
2024-02-13T10:30:26.908Z,4.70
2024-02-13T10:33:29.866Z,4.37
2024-02-13T10:36:36.228Z,4.47
2024-02-13T10:39:41.613Z,4.22
2024-02-13T10:42:45.271Z,3.87
2024-02-13T10:45:51.419Z,3.75
2024-02-13T10:49:32.321Z,3.35
2024-02-13T10:52:36.934Z,2.87
2024-02-13T10:55:43.768Z,2.92
2024-02-13T10:58:51.782Z,3.30
2024-02-13T11:02:00.748Z,3.67
2024-02-13T11:05:11.148Z,2.75
2024-02-13T11:08:15.055Z,3.03
2024-02-13T11:11:18.682Z,3.37
2024-02-13T11:14:25.322Z,3.30
2024-02-13T11:17:32.828Z,3.50
2024-02-13T11:20:43.530Z,3.15
2024-02-13T11:24:02.591Z,3.03
2024-02-13T11:27:19.562Z,2.67
2024-02-13T11:30:29.559Z,3.12
2024-02-13T11:33:33.344Z,3.00
2024-02-13T11:36:36.898Z,2.62
2024-02-13T11:39:42.582Z,2.70
2024-02-13T11:42:45.835Z,2.60
2024-02-13T11:45:50.465Z,2.75
2024-02-13T11:48:55.922Z,2.87
2024-02-13T11:51:58.909Z,2.92
2024-02-13T11:55:02.662Z,3.20
2024-02-13T11:58:15.907Z,2.80
2024-02-13T12:01:19.637Z,2.75
2024-02-13T12:04:23.249Z,2.53
2024-02-13T12:07:26.162Z,3.00
2024-02-13T12:10:29.437Z,3.50
2024-02-13T12:13:32.918Z,3.50
2024-02-13T12:16:36.881Z,3.87
2024-02-13T12:19:43.281Z,3.80
2024-02-13T12:22:46.298Z,4.10
2024-02-13T12:25:59.367Z,4.00
2024-02-13T12:29:16.026Z,3.83
2024-02-13T12:32:19.302Z,4.00
2024-02-13T12:35:33.601Z,3.42
2024-02-13T12:38:39.766Z,3.12
2024-02-13T12:41:42.659Z,3.42
2024-02-13T12:44:46.247Z,3.25
2024-02-13T12:47:49.816Z,3.55
2024-02-13T12:50:52.893Z,3.50
2024-02-13T12:53:55.895Z,3.53
2024-02-13T12:56:58.536Z,3.58
2024-02-13T13:00:01.578Z,3.70
2024-02-13T13:03:05.823Z,3.75
2024-02-13T13:06:12.750Z,3.37
2024-02-13T13:09:23.895Z,3.40
2024-02-13T13:12:31.037Z,3.58
2024-02-13T13:15:34.818Z,3.20
2024-02-13T13:18:39.990Z,2.90
2024-02-13T13:21:43.597Z,2.75
2024-02-13T13:24:46.483Z,2.70
2024-02-13T13:27:49.300Z,2.28
2024-02-13T13:31:01.195Z,2.15
2024-02-13T13:34:06.801Z,2.12
2024-02-13T13:37:11.665Z,1.62
2024-02-13T13:40:15.549Z,1.70
2024-02-13T13:43:20.249Z,1.70
2024-02-13T13:46:23.601Z,1.83
2024-02-13T13:49:26.617Z,2.28
2024-02-13T13:52:29.224Z,2.20
2024-02-13T13:55:32.191Z,2.00
2024-02-13T13:58:34.830Z,2.12
2024-02-13T14:01:37.853Z,2.35
2024-02-13T14:04:40.924Z,2.45
2024-02-13T14:07:43.459Z,2.12
2024-02-13T14:10:46.462Z,2.53
2024-02-13T14:13:51.097Z,2.20
2024-02-13T14:16:55.747Z,2.37
2024-02-13T14:19:58.355Z,2.30
2024-02-13T14:23:02.270Z,2.40
2024-02-13T14:26:05.551Z,1.90
2024-02-13T14:29:12.224Z,1.95
2024-02-13T14:32:16.178Z,2.00
2024-02-13T14:35:19.307Z,2.50
2024-02-13T14:38:22.593Z,2.55
2024-02-13T14:41:26.179Z,2.10
2024-02-13T14:44:28.988Z,2.05
2024-02-13T14:47:32.901Z,1.60
2024-02-13T14:50:36.161Z,2.03
2024-02-13T14:53:39.173Z,2.00
2024-02-13T14:56:42.963Z,2.03
2024-02-13T14:59:46.510Z,1.77
2024-02-13T15:02:49.333Z,2.08
2024-02-13T15:05:53.210Z,1.92
2024-02-13T15:08:56.208Z,1.92
2024-02-13T15:11:59.308Z,2.00
2024-02-13T15:15:02.744Z,2.20
2024-02-13T15:18:07.808Z,1.92
2024-02-13T15:21:10.932Z,2.22
2024-02-13T15:24:13.915Z,1.98
2024-02-13T15:27:16.539Z,1.90
2024-02-13T15:30:19.707Z,2.10
2024-02-13T15:33:22.654Z,1.95
2024-02-13T15:36:38.382Z,1.80
2024-02-13T15:39:59.332Z,1.90
2024-02-13T15:43:21.172Z,1.60
2024-02-13T15:46:42.054Z,1.87
2024-02-13T15:49:45.686Z,1.87
2024-02-13T15:52:52.145Z,1.80
2024-02-13T15:55:55.124Z,1.70
2024-02-13T15:58:57.775Z,1.80
2024-02-13T16:02:01.155Z,1.80
2024-02-13T16:05:07.448Z,1.83
2024-02-13T16:08:11.797Z,2.35
2024-02-13T16:11:15.660Z,2.90
2024-02-13T16:14:19.081Z,2.70
2024-02-13T16:17:22.185Z,3.00
2024-02-13T16:20:24.909Z,2.90
2024-02-13T16:23:27.818Z,3.47
2024-02-13T16:26:32.199Z,3.15
2024-02-13T16:29:35.605Z,3.30
2024-02-13T16:32:40.764Z,3.62
2024-02-13T16:35:44.234Z,3.33
2024-02-13T16:38:46.814Z,3.83
2024-02-13T16:41:53.548Z,3.30
2024-02-13T16:44:56.859Z,3.28
2024-02-13T16:48:00.004Z,3.10
2024-02-13T16:51:03.217Z,3.58
2024-02-13T16:54:08.388Z,3.47
2024-02-13T16:57:11.701Z,3.95
2024-02-13T17:00:15.127Z,3.67
2024-02-13T17:03:17.776Z,3.90
2024-02-13T17:06:20.986Z,4.15
2024-02-13T17:09:24.055Z,4.05
2024-02-13T17:12:29.077Z,4.37
2024-02-13T17:15:31.591Z,4.47
2024-02-13T17:18:34.776Z,4.30
2024-02-13T17:21:37.510Z,4.20
2024-02-13T17:24:41.176Z,4.55
2024-02-13T17:27:43.903Z,4.93
2024-02-13T17:30:46.759Z,5.35
2024-02-13T17:33:49.475Z,5.43
2024-02-13T17:36:52.393Z,5.25
2024-02-13T17:39:54.910Z,5.12
2024-02-13T17:42:57.842Z,5.15
2024-02-13T17:46:00.536Z,5.50
2024-02-13T17:49:04.593Z,4.95
2024-02-13T17:52:07.611Z,5.43
2024-02-13T17:55:11.330Z,5.35
2024-02-13T17:58:14.678Z,5.22
2024-02-13T18:01:17.656Z,5.10
2024-02-13T18:04:22.207Z,5.30
2024-02-13T18:07:24.741Z,5.05
2024-02-13T18:10:27.732Z,4.97
2024-02-13T18:13:30.848Z,4.80
2024-02-13T18:16:35.254Z,4.97
2024-02-13T18:19:37.964Z,4.85
2024-02-13T18:22:41.561Z,4.72
2024-02-13T18:25:44.940Z,4.97
2024-02-13T18:28:47.770Z,5.65
2024-02-13T18:31:50.470Z,5.00
2024-02-13T18:34:54.369Z,4.07
2024-02-13T18:38:00.223Z,4.45
2024-02-13T18:41:03.958Z,5.07
2024-02-13T18:44:06.990Z,4.43
2024-02-13T18:47:12.460Z,4.05
2024-02-13T18:50:17.917Z,4.05
2024-02-13T18:53:23.871Z,3.67
2024-02-13T18:56:33.612Z,3.75
2024-02-13T18:59:36.891Z,4.07
2024-02-13T19:02:39.876Z,3.53
2024-02-13T19:05:43.065Z,3.62
2024-02-13T19:08:45.817Z,3.70
2024-02-13T19:11:52.942Z,3.90
2024-02-13T19:14:55.736Z,3.60
2024-02-13T19:17:59.002Z,4.12
2024-02-13T19:21:01.906Z,4.07
2024-02-13T19:24:05.231Z,4.28
2024-02-13T19:27:11.064Z,4.40
2024-02-13T19:30:14.609Z,4.50
2024-02-13T19:33:18.166Z,4.45
2024-02-13T19:36:21.282Z,4.82
2024-02-13T19:39:24.658Z,5.00
2024-02-13T19:42:28.434Z,4.93
2024-02-13T19:45:31.144Z,4.90
2024-02-13T19:48:38.541Z,4.72
2024-02-13T19:51:41.923Z,5.20
2024-02-13T19:54:46.141Z,4.93
2024-02-13T19:57:48.632Z,4.93
2024-02-13T20:00:51.937Z,4.93
2024-02-13T20:03:56.187Z,4.72
2024-02-13T20:07:00.562Z,5.28
2024-02-13T20:10:03.665Z,5.28
2024-02-13T20:13:06.600Z,5.25
2024-02-13T20:16:09.778Z,5.90
2024-02-13T20:19:15.524Z,6.12
2024-02-13T20:22:18.571Z,5.45
2024-02-13T20:25:21.408Z,6.12
2024-02-13T20:28:24.176Z,5.68
2024-02-13T20:31:27.098Z,5.68
2024-02-13T20:34:30.369Z,5.65
2024-02-13T20:37:33.059Z,5.95
2024-02-13T20:40:37.103Z,6.10
2024-02-13T20:43:44.661Z,5.70
2024-02-13T20:46:48.273Z,5.93
2024-02-13T20:49:50.956Z,6.32
2024-02-13T20:52:55.120Z,5.80
2024-02-13T20:56:02.502Z,5.90
2024-02-13T20:59:05.602Z,5.87
2024-02-13T21:02:08.945Z,5.93
2024-02-13T21:05:12.125Z,5.95
2024-02-13T21:08:15.098Z,6.85
2024-02-13T21:11:18.876Z,6.72
2024-02-13T21:14:21.896Z,6.43
2024-02-13T21:17:25.115Z,6.62
2024-02-13T21:20:31.332Z,6.32
2024-02-13T21:23:53.158Z,6.10
2024-02-13T21:26:56.332Z,6.32
2024-02-13T21:29:59.691Z,6.43
2024-02-13T21:33:02.476Z,5.87
2024-02-13T21:36:06.862Z,6.70
2024-02-13T21:39:11.838Z,6.95
2024-02-13T21:42:15.713Z,6.68
2024-02-13T21:45:18.625Z,5.75
2024-02-13T21:48:21.764Z,5.85
2024-02-13T21:51:24.277Z,5.68
2024-02-13T21:54:27.110Z,5.93
2024-02-13T21:57:29.999Z,5.93
2024-02-13T22:00:33.369Z,5.90
2024-02-13T22:03:36.828Z,6.18
2024-02-13T22:06:39.723Z,6.07
2024-02-13T22:09:42.815Z,6.20
2024-02-13T22:12:47.237Z,5.90
2024-02-13T22:15:50.278Z,6.22
2024-02-13T22:18:52.928Z,5.75
2024-02-13T22:21:55.814Z,5.43
2024-02-13T22:24:58.804Z,5.30
2024-02-13T22:28:02.647Z,5.43
2024-02-13T22:31:06.433Z,5.75
2024-02-13T22:34:09.341Z,5.30
2024-02-13T22:37:12.009Z,6.60
2024-02-13T22:40:15.223Z,7.20
2024-02-13T22:43:19.039Z,7.37
2024-02-13T22:46:25.179Z,6.25
2024-02-13T22:49:29.039Z,5.55
2024-02-13T22:52:34.233Z,5.95
2024-02-13T22:55:37.031Z,5.78
2024-02-13T22:58:39.830Z,6.10
2024-02-13T23:01:42.989Z,5.57
2024-02-13T23:04:51.682Z,5.45
2024-02-13T23:07:54.627Z,5.15
2024-02-13T23:10:57.764Z,4.70
2024-02-13T23:14:00.496Z,4.82
2024-02-13T23:17:03.581Z,5.03
2024-02-13T23:20:11.769Z,5.03
2024-02-13T23:23:14.712Z,4.60
2024-02-13T23:26:17.762Z,4.50
2024-02-13T23:29:22.309Z,4.80
2024-02-13T23:32:25.093Z,4.78
2024-02-13T23:35:28.049Z,4.78
2024-02-13T23:38:30.716Z,4.87
2024-02-13T23:41:33.901Z,4.50
2024-02-13T23:44:36.568Z,4.50
2024-02-13T23:47:39.992Z,4.40
2024-02-13T23:50:42.608Z,4.60
2024-02-13T23:53:46.352Z,4.78
2024-02-13T23:56:49.374Z,4.78
2024-02-13T23:59:52.328Z,4.90
